Time;durP1;ratioP1;P1;durP2;ratioP2;P2;SDS_P1;SDS_P2;PMS_P1;PMS_P2;Temp;Humidity;BMP_temperature;BMP_pressure;BME280_temperature;BME280_humidity;BME280_pressure;Samples;Min_cycle;Max_cycle;Signal;HPM_P1;HPM_P2
2023/01/26 00:01:30;;;;;;;26.83;11.02;;;;;;;;;;6341111;22;20142;-62
2023/01/26 00:03:56;;;;;;;24.13;10.60;;;;;;;;;;6340818;22;20192;-62
2023/01/26 00:06:22;;;;;;;24.38;9.07;;;;;;;;;;6341145;22;20138;-62
2023/01/26 00:08:49;;;;;;;23.13;10.27;;;;;;;;;;6341147;22;20150;-62
2023/01/26 00:11:16;;;;;;;21.83;9.35;;;;;;;;;;6341011;22;20153;-62
2023/01/26 00:13:42;;;;;;;22.83;9.75;;;;;;;;;;6341307;22;20146;-60
2023/01/26 00:16:13;;;;;;;18.90;8.43;;;;;;;;;;6340369;22;20146;-60
2023/01/26 00:18:40;;;;;;;18.77;8.55;;;;;;;;;;6341943;22;20152;-61
2023/01/26 00:21:07;;;;;;;24.77;10.52;;;;;;;;;;6343399;22;20150;-60
2023/01/26 00:23:34;;;;;;;26.65;10.15;;;;;;;;;;6342992;22;20169;-60
2023/01/26 00:26:00;;;;;;;23.58;10.50;;;;;;;;;;6342298;22;20541;-61
2023/01/26 00:28:28;;;;;;;25.70;10.60;;;;;;;;;;6342673;22;20434;-60
2023/01/26 00:31:01;;;;;;;23.13;10.38;;;;;;;;;;6342654;22;20142;-60
2023/01/26 00:33:28;;;;;;;21.42;8.57;;;;;;;;;;6343523;22;20420;-61
2023/01/26 00:35:54;;;;;;;21.58;10.00;;;;;;;;;;6343299;22;20146;-61
2023/01/26 00:38:20;;;;;;;26.35;10.25;;;;;;;;;;6343870;22;20447;-63
2023/01/26 00:40:47;;;;;;;24.77;10.32;;;;;;;;;;6344054;22;20191;-63
2023/01/26 00:43:13;;;;;;;23.58;10.82;;;;;;;;;;6344046;22;20147;-62
2023/01/26 00:45:39;;;;;;;22.83;9.20;;;;;;;;;;6342626;22;20181;-62
2023/01/26 00:48:05;;;;;;;25.40;10.52;;;;;;;;;;6344307;22;20138;-62
2023/01/26 00:50:32;;;;;;;22.05;10.23;;;;;;;;;;6343927;22;20230;-62
2023/01/26 00:52:57;;;;;;;22.85;9.73;;;;;;;;;;6344002;22;20422;-62
2023/01/26 00:55:30;;;;;;;21.48;10.00;;;;;;;;;;6344429;22;20153;-62
2023/01/26 00:57:56;;;;;;;23.45;9.98;;;;;;;;;;6344130;22;20127;-62
2023/01/26 01:00:23;;;;;;;20.08;8.50;;;;;;;;;;6343354;22;20252;-62
2023/01/26 01:02:49;;;;;;;20.73;9.13;;;;;;;;;;6342381;22;20164;-61
2023/01/26 01:05:15;;;;;;;19.77;9.32;;;;;;;;;;6343286;22;20154;-61
2023/01/26 01:07:41;;;;;;;22.33;8.43;;;;;;;;;;6342553;22;20146;-60
2023/01/26 01:10:07;;;;;;;22.25;9.13;;;;;;;;;;6342684;22;20134;-61
2023/01/26 01:12:33;;;;;;;19.67;8.02;;;;;;;;;;6342124;22;20606;-60
2023/01/26 01:14:59;;;;;;;19.50;8.40;;;;;;;;;;6342507;22;20422;-61
2023/01/26 01:17:25;;;;;;;20.92;7.78;;;;;;;;;;6342613;22;20145;-62
2023/01/26 01:19:51;;;;;;;22.05;8.93;;;;;;;;;;6342501;22;20153;-63
2023/01/26 01:22:17;;;;;;;18.13;8.30;;;;;;;;;;6341945;22;20169;-63
2023/01/26 01:24:43;;;;;;;21.25;9.05;;;;;;;;;;6342536;22;20176;-63
2023/01/26 01:27:09;;;;;;;17.10;7.93;;;;;;;;;;6342369;22;20138;-63
2023/01/26 01:29:35;;;;;;;21.30;7.10;;;;;;;;;;6342290;22;20225;-63
2023/01/26 01:32:01;;;;;;;17.55;8.02;;;;;;;;;;6341987;22;20195;-63
2023/01/26 01:34:27;;;;;;;16.60;7.65;;;;;;;;;;6342334;22;20245;-62
2023/01/26 01:36:53;;;;;;;17.95;7.80;;;;;;;;;;6341712;22;20141;-60
2023/01/26 01:39:19;;;;;;;16.45;7.70;;;;;;;;;;6341869;22;20225;-62
2023/01/26 01:41:45;;;;;;;17.20;7.85;;;;;;;;;;6342130;22;20149;-61
2023/01/26 01:44:29;;;;;;;18.23;8.00;;;;;;;;;;6342266;22;20652;-61
2023/01/26 01:46:58;;;;;;;14.40;6.38;;;;;;;;;;6342098;22;20126;-62
2023/01/26 01:49:38;;;;;;;16.20;6.90;;;;;;;;;;6342226;22;20151;-60
2023/01/26 01:52:23;;;;;;;14.13;6.32;;;;;;;;;;6341514;22;20187;-60
2023/01/26 01:54:51;;;;;;;14.98;6.70;;;;;;;;;;6342349;22;20157;-62
2023/01/26 01:57:26;;;;;;;18.17;7.20;;;;;;;;;;6341969;22;20157;-60
2023/01/26 01:59:54;;;;;;;20.35;7.22;;;;;;;;;;6341945;22;20162;-60
2023/01/26 02:02:21;;;;;;;16.90;7.43;;;;;;;;;;6341656;22;20577;-62
2023/01/26 02:04:47;;;;;;;17.92;7.47;;;;;;;;;;6342249;22;20220;-61
2023/01/26 02:07:14;;;;;;;16.02;7.32;;;;;;;;;;6342224;22;20153;-61
2023/01/26 02:12:27;;;;;;;20.00;8.52;;;;;;;;;;6341951;22;20211;-60
2023/01/26 02:14:53;;;;;;;18.30;7.15;;;;;;;;;;6342366;22;20203;-60
2023/01/26 02:17:19;;;;;;;14.45;5.97;;;;;;;;;;6341914;22;20226;-60
2023/01/26 02:20:04;;;;;;;13.50;6.68;;;;;;;;;;6342052;22;20180;-60
2023/01/26 02:22:36;;;;;;;15.15;7.13;;;;;;;;;;6341533;22;20170;-60
2023/01/26 02:25:06;;;;;;;16.20;6.85;;;;;;;;;;6342078;22;20516;-62
2023/01/26 02:27:32;;;;;;;16.58;6.78;;;;;;;;;;6342597;22;20444;-61
2023/01/26 02:29:59;;;;;;;13.43;6.10;;;;;;;;;;6342018;22;20138;-61
2023/01/26 02:32:27;;;;;;;15.48;6.43;;;;;;;;;;6341236;22;20542;-61
2023/01/26 02:34:56;;;;;;;16.20;6.53;;;;;;;;;;6341747;22;20150;-62
2023/01/26 02:37:22;;;;;;;12.88;6.38;;;;;;;;;;6341578;22;20154;-61
2023/01/26 02:40:04;;;;;;;14.70;6.35;;;;;;;;;;6341273;22;20494;-63
2023/01/26 02:42:40;;;;;;;15.25;6.95;;;;;;;;;;6341682;22;20169;-61
2023/01/26 02:45:09;;;;;;;13.65;6.75;;;;;;;;;;6341969;22;20153;-60
2023/01/26 02:47:35;;;;;;;14.15;6.10;;;;;;;;;;6341473;22;20254;-60
2023/01/26 02:50:01;;;;;;;15.18;6.28;;;;;;;;;;6342877;22;20153;-62
2023/01/26 02:52:29;;;;;;;13.88;6.80;;;;;;;;;;6342404;22;20134;-62
2023/01/26 02:57:40;;;;;;;14.48;6.55;;;;;;;;;;6342030;22;20544;-60
2023/01/26 03:00:14;;;;;;;12.30;6.10;;;;;;;;;;6342287;22;20436;-62
2023/01/26 03:02:40;;;;;;;14.25;6.55;;;;;;;;;;6342249;22;20200;-62
2023/01/26 03:05:07;;;;;;;14.85;6.00;;;;;;;;;;6341797;22;20166;-62
2023/01/26 03:07:33;;;;;;;12.52;5.80;;;;;;;;;;6341345;22;20142;-62
2023/01/26 03:09:59;;;;;;;13.20;6.38;;;;;;;;;;6341439;22;20149;-61
2023/01/26 03:12:26;;;;;;;14.95;6.57;;;;;;;;;;6341102;22;20134;-61
2023/01/26 03:15:41;;;;;;;15.98;6.32;;;;;;;;;;6340934;22;20546;-63
2023/01/26 03:17:41;;;;;;;15.77;6.63;;;;;;;;;;6340999;22;20632;-62
2023/01/26 03:28:21;;;;;;;12.50;6.13;;;;;;;;;;6340982;22;20137;-61
2023/01/26 03:30:52;;;;;;;16.25;7.10;;;;;;;;;;6341045;22;20138;-62
2023/01/26 03:33:18;;;;;;;19.15;7.22;;;;;;;;;;6341112;22;20142;-63
2023/01/26 03:35:45;;;;;;;13.10;6.00;;;;;;;;;;6341290;22;20153;-61
2023/01/26 03:38:11;;;;;;;15.20;6.75;;;;;;;;;;6341109;22;20215;-62
2023/01/26 03:57:06;;;;;;;19.15;7.85;;;;;;;;;;6343025;22;20159;-61
2023/01/26 03:59:38;;;;;;;18.92;7.63;;;;;;;;;;6342553;22;20154;-62
2023/01/26 04:10:25;;;;;;;16.27;6.70;;;;;;;;;;6342548;22;20273;-61
2023/01/26 04:23:55;;;;;;;17.30;6.93;;;;;;;;;;6342642;22;20219;-63
2023/01/26 04:26:21;;;;;;;16.45;7.50;;;;;;;;;;6342930;22;20436;-62
2023/01/26 04:28:47;;;;;;;16.55;7.05;;;;;;;;;;6342394;22;20142;-62
2023/01/26 04:31:15;;;;;;;16.13;7.40;;;;;;;;;;6342709;22;20236;-62
2023/01/26 04:33:41;;;;;;;18.60;7.50;;;;;;;;;;6342561;22;20142;-62
2023/01/26 04:36:08;;;;;;;14.35;6.45;;;;;;;;;;6342632;22;20149;-62
2023/01/26 04:38:33;;;;;;;18.00;7.68;;;;;;;;;;6342284;22;20149;-62
2023/01/26 04:40:59;;;;;;;15.95;6.97;;;;;;;;;;6342574;22;20429;-62
2023/01/26 04:43:25;;;;;;;19.17;7.05;;;;;;;;;;6342179;22;20147;-61
2023/01/26 04:46:01;;;;;;;18.33;8.07;;;;;;;;;;6342127;22;20170;-61
2023/01/26 04:48:28;;;;;;;18.55;6.85;;;;;;;;;;6343147;22;20153;-59
2023/01/26 04:50:54;;;;;;;16.58;7.80;;;;;;;;;;6342622;22;20161;-62
2023/01/26 04:53:21;;;;;;;21.75;7.60;;;;;;;;;;6342559;22;20169;-62
2023/01/26 04:55:47;;;;;;;20.23;7.00;;;;;;;;;;6342317;22;20142;-63
2023/01/26 04:58:13;;;;;;;17.98;7.35;;;;;;;;;;6342463;22;20170;-62
2023/01/26 05:00:39;;;;;;;17.90;7.97;;;;;;;;;;6342012;22;20138;-63
2023/01/26 05:03:05;;;;;;;15.80;7.07;;;;;;;;;;6342000;22;20225;-62
2023/01/26 05:05:34;;;;;;;16.73;7.35;;;;;;;;;;6341781;22;20158;-63
2023/01/26 05:08:00;;;;;;;16.77;7.35;;;;;;;;;;6342379;22;20434;-63
2023/01/26 05:10:26;;;;;;;16.75;7.85;;;;;;;;;;6341925;22;20135;-62
2023/01/26 05:12:52;;;;;;;18.13;8.25;;;;;;;;;;6343653;22;20134;-61
2023/01/26 05:15:18;;;;;;;15.77;7.55;;;;;;;;;;6342303;22;20449;-62
2023/01/26 05:17:44;;;;;;;16.77;7.43;;;;;;;;;;6342122;22;20549;-62
2023/01/26 05:20:10;;;;;;;15.40;7.45;;;;;;;;;;6342213;22;20437;-61
2023/01/26 05:22:36;;;;;;;15.95;6.90;;;;;;;;;;6341601;22;20577;-61
2023/01/26 05:25:02;;;;;;;18.23;7.18;;;;;;;;;;6342021;22;20173;-61
2023/01/26 05:27:28;;;;;;;18.25;7.88;;;;;;;;;;6342025;22;20177;-62
2023/01/26 05:29:59;;;;;;;12.15;6.43;;;;;;;;;;6342088;22;20169;-62
2023/01/26 05:32:25;;;;;;;14.88;6.82;;;;;;;;;;6342328;22;20475;-62
2023/01/26 05:34:51;;;;;;;17.83;6.90;;;;;;;;;;6341948;22;20149;-62
2023/01/26 05:37:17;;;;;;;15.98;6.85;;;;;;;;;;6342062;22;20487;-62
2023/01/26 05:39:43;;;;;;;18.05;7.18;;;;;;;;;;6341613;22;20142;-61
2023/01/26 05:42:13;;;;;;;17.52;7.63;;;;;;;;;;6342296;22;20426;-62
2023/01/26 05:44:39;;;;;;;18.08;8.30;;;;;;;;;;6341817;22;20245;-62
2023/01/26 05:47:05;;;;;;;18.15;8.18;;;;;;;;;;6341988;22;20150;-62
2023/01/26 05:49:31;;;;;;;18.27;7.93;;;;;;;;;;6341722;22;20230;-62
2023/01/26 05:51:57;;;;;;;17.27;7.75;;;;;;;;;;6341728;22;20134;-62
2023/01/26 05:54:23;;;;;;;18.80;7.88;;;;;;;;;;6341976;22;20203;-62
2023/01/26 05:56:49;;;;;;;17.20;7.45;;;;;;;;;;6342104;22;20146;-62
2023/01/26 05:59:15;;;;;;;19.15;7.80;;;;;;;;;;6341930;22;20229;-62
2023/01/26 06:01:41;;;;;;;17.15;7.03;;;;;;;;;;6341487;22;20149;-63
2023/01/26 06:04:07;;;;;;;15.80;7.50;;;;;;;;;;6341384;22;20652;-62
2023/01/26 06:06:33;;;;;;;17.15;7.20;;;;;;;;;;6341316;22;20146;-62
2023/01/26 06:08:59;;;;;;;19.63;7.88;;;;;;;;;;6342045;22;20456;-62
2023/01/26 06:11:25;;;;;;;15.40;7.05;;;;;;;;;;6341873;22;20162;-62
2023/01/26 06:13:51;;;;;;;16.20;7.22;;;;;;;;;;6341733;22;20143;-63
2023/01/26 06:16:17;;;;;;;15.70;6.45;;;;;;;;;;6341505;22;20138;-61
2023/01/26 06:18:47;;;;;;;17.42;7.60;;;;;;;;;;6341419;22;20161;-62
2023/01/26 06:21:13;;;;;;;17.20;7.57;;;;;;;;;;6341358;22;20573;-60
2023/01/26 06:23:39;;;;;;;17.02;7.22;;;;;;;;;;6341357;22;20150;-60
2023/01/26 06:26:06;;;;;;;18.25;7.85;;;;;;;;;;6343929;22;20553;-63
2023/01/26 06:28:32;;;;;;;18.70;7.35;;;;;;;;;;6344662;22;20134;-62
2023/01/26 06:31:01;;;;;;;17.27;7.78;;;;;;;;;;6346394;22;20204;-62
2023/01/26 06:33:27;;;;;;;18.88;8.15;;;;;;;;;;6342860;22;20410;-62
2023/01/26 06:35:54;;;;;;;19.48;7.75;;;;;;;;;;6343555;22;20176;-62
2023/01/26 06:38:20;;;;;;;18.85;8.55;;;;;;;;;;6343069;22;20218;-62
2023/01/26 06:40:46;;;;;;;22.77;8.38;;;;;;;;;;6342350;22;20179;-62
2023/01/26 06:43:12;;;;;;;18.42;8.57;;;;;;;;;;6342355;22;20223;-62
2023/01/26 06:45:38;;;;;;;18.90;7.75;;;;;;;;;;6342236;22;20162;-61
2023/01/26 06:48:04;;;;;;;18.55;7.65;;;;;;;;;;6341811;22;20196;-62
2023/01/26 06:50:33;;;;;;;19.85;7.75;;;;;;;;;;6341644;22;20417;-61
2023/01/26 06:53:00;;;;;;;20.38;8.23;;;;;;;;;;6341100;22;20573;-62
2023/01/26 06:55:36;;;;;;;20.83;7.85;;;;;;;;;;6341748;22;20191;-62
2023/01/26 06:58:02;;;;;;;21.17;8.38;;;;;;;;;;6341428;22;20173;-62
2023/01/26 07:00:28;;;;;;;19.90;8.70;;;;;;;;;;6341306;22;20180;-62
2023/01/26 07:02:54;;;;;;;18.52;7.72;;;;;;;;;;6341698;22;20156;-62
2023/01/26 07:05:20;;;;;;;23.63;9.05;;;;;;;;;;6341559;22;20170;-60
2023/01/26 07:07:46;;;;;;;22.10;8.48;;;;;;;;;;6341479;22;20552;-62
2023/01/26 07:10:12;;;;;;;20.48;9.57;;;;;;;;;;6341446;22;20142;-61
2023/01/26 07:12:38;;;;;;;21.83;9.50;;;;;;;;;;6341210;22;20427;-61
2023/01/26 07:15:05;;;;;;;17.10;8.23;;;;;;;;;;6341297;22;20146;-61
2023/01/26 07:17:31;;;;;;;17.20;7.57;;;;;;;;;;6341312;22;20161;-61
2023/01/26 07:19:57;;;;;;;21.80;8.73;;;;;;;;;;6340987;22;20150;-61
2023/01/26 07:22:22;;;;;;;22.55;8.70;;;;;;;;;;6340919;22;20166;-60
2023/01/26 07:24:48;;;;;;;20.55;7.95;;;;;;;;;;6340931;22;20216;-59
2023/01/26 07:27:14;;;;;;;21.00;8.13;;;;;;;;;;6340886;22;20149;-61
2023/01/26 07:29:40;;;;;;;17.05;7.82;;;;;;;;;;6342296;22;20212;-60
2023/01/26 07:32:06;;;;;;;19.10;8.77;;;;;;;;;;6343565;22;20142;-60
2023/01/26 07:34:32;;;;;;;21.05;9.10;;;;;;;;;;6342117;22;20146;-60
2023/01/26 07:36:58;;;;;;;19.67;8.32;;;;;;;;;;6343087;22;20142;-61
2023/01/26 07:39:24;;;;;;;22.20;8.98;;;;;;;;;;6343266;22;20157;-60
2023/01/26 07:41:50;;;;;;;20.17;8.68;;;;;;;;;;6342302;22;20211;-62
2023/01/26 07:44:16;;;;;;;21.80;9.38;;;;;;;;;;6342877;22;20533;-63
2023/01/26 07:46:42;;;;;;;21.13;8.70;;;;;;;;;;6343371;22;20180;-63
2023/01/26 07:49:10;;;;;;;20.00;8.48;;;;;;;;;;6343526;22;20162;-63
2023/01/26 07:51:38;;;;;;;21.67;9.57;;;;;;;;;;6343306;22;20470;-62
2023/01/26 07:54:04;;;;;;;19.88;8.18;;;;;;;;;;6343389;22;20265;-61
2023/01/26 07:56:30;;;;;;;24.73;9.68;;;;;;;;;;6343216;22;20231;-61
2023/01/26 07:58:56;;;;;;;19.63;8.57;;;;;;;;;;6343255;22;20311;-62
2023/01/26 08:01:23;;;;;;;24.35;9.73;;;;;;;;;;6343127;22;20146;-61
2023/01/26 08:03:49;;;;;;;25.40;9.45;;;;;;;;;;6342984;22;20154;-62
2023/01/26 08:06:17;;;;;;;26.17;9.90;;;;;;;;;;6342559;22;20550;-59
2023/01/26 08:08:43;;;;;;;24.27;9.35;;;;;;;;;;6343191;22;20174;-61
2023/01/26 08:11:10;;;;;;;21.75;9.50;;;;;;;;;;6342871;22;20161;-62
2023/01/26 08:13:36;;;;;;;24.40;10.05;;;;;;;;;;6343521;22;20407;-61
2023/01/26 08:16:03;;;;;;;22.75;8.93;;;;;;;;;;6343081;22;20142;-60
2023/01/26 08:18:29;;;;;;;22.80;9.55;;;;;;;;;;6342982;22;20146;-62
2023/01/26 08:20:56;;;;;;;28.88;10.48;;;;;;;;;;6342542;22;20569;-61
2023/01/26 08:23:22;;;;;;;25.92;10.23;;;;;;;;;;6342330;22;20189;-60
2023/01/26 08:25:48;;;;;;;25.35;10.57;;;;;;;;;;6342933;22;20166;-61
2023/01/26 08:28:14;;;;;;;21.55;10.88;;;;;;;;;;6342631;22;20534;-62
2023/01/26 08:30:40;;;;;;;26.00;10.93;;;;;;;;;;6342720;22;20142;-62
2023/01/26 08:33:06;;;;;;;25.33;10.20;;;;;;;;;;6342669;22;20212;-61
2023/01/26 08:35:33;;;;;;;24.42;10.00;;;;;;;;;;6342728;22;20245;-62
2023/01/26 08:37:59;;;;;;;23.25;9.80;;;;;;;;;;6342470;22;20146;-61
2023/01/26 08:40:25;;;;;;;25.65;10.25;;;;;;;;;;6342085;22;20150;-62
2023/01/26 08:42:51;;;;;;;23.88;9.82;;;;;;;;;;6342558;22;20255;-61
2023/01/26 08:45:17;;;;;;;25.95;10.48;;;;;;;;;;6342356;22;20166;-60
2023/01/26 08:47:44;;;;;;;25.65;10.75;;;;;;;;;;6342602;22;20157;-60
2023/01/26 08:50:10;;;;;;;22.17;9.85;;;;;;;;;;6342536;22;20217;-61
2023/01/26 08:52:36;;;;;;;25.00;11.02;;;;;;;;;;6342855;22;20150;-63
2023/01/26 08:55:03;;;;;;;27.35;10.65;;;;;;;;;;6342411;22;20438;-61
2023/01/26 08:57:29;;;;;;;28.10;11.07;;;;;;;;;;6342187;22;20575;-62
2023/01/26 08:59:55;;;;;;;26.73;12.05;;;;;;;;;;6342199;22;20147;-63
2023/01/26 09:02:21;;;;;;;27.65;12.40;;;;;;;;;;6342074;22;20153;-61
2023/01/26 09:04:47;;;;;;;29.85;10.57;;;;;;;;;;6342103;22;20252;-62
2023/01/26 09:07:13;;;;;;;29.77;11.70;;;;;;;;;;6342215;22;20204;-62
2023/01/26 09:09:39;;;;;;;28.25;11.93;;;;;;;;;;6342511;22;20146;-62
2023/01/26 09:12:05;;;;;;;21.60;10.48;;;;;;;;;;6341900;22;20138;-62
2023/01/26 09:14:31;;;;;;;28.55;11.40;;;;;;;;;;6341467;22;20482;-62
2023/01/26 09:16:57;;;;;;;27.75;11.55;;;;;;;;;;6342315;22;20227;-61
2023/01/26 09:19:23;;;;;;;29.67;11.48;;;;;;;;;;6342087;22;20534;-62
2023/01/26 09:21:53;;;;;;;31.40;12.15;;;;;;;;;;6342229;22;20189;-62
2023/01/26 09:24:20;;;;;;;30.35;11.88;;;;;;;;;;6342357;22;20460;-62
2023/01/26 09:26:46;;;;;;;32.25;11.57;;;;;;;;;;6341926;22;20139;-62
2023/01/26 09:29:12;;;;;;;28.55;12.38;;;;;;;;;;6342207;22;20565;-62
2023/01/26 09:31:39;;;;;;;32.13;13.13;;;;;;;;;;6342375;22;20138;-63
2023/01/26 09:34:05;;;;;;;30.95;11.85;;;;;;;;;;6342393;22;20147;-63
2023/01/26 09:36:32;;;;;;;31.30;12.82;;;;;;;;;;6342174;22;20216;-63
2023/01/26 09:38:58;;;;;;;30.77;12.57;;;;;;;;;;6341950;22;20220;-62
2023/01/26 09:41:42;;;;;;;34.15;13.63;;;;;;;;;;6341901;22;20180;-61
2023/01/26 09:44:34;;;;;;;32.35;13.15;;;;;;;;;;6342238;22;20162;-62
2023/01/26 09:47:07;;;;;;;32.70;13.52;;;;;;;;;;6339234;22;20138;-61
2023/01/26 09:49:52;;;;;;;29.17;12.82;;;;;;;;;;6342024;22;20139;-63
2023/01/26 09:52:26;;;;;;;31.75;13.43;;;;;;;;;;6341728;22;20488;-63
2023/01/26 09:54:54;;;;;;;36.30;13.73;;;;;;;;;;6343858;22;20135;-62
2023/01/26 09:57:36;;;;;;;31.33;13.18;;;;;;;;;;6353668;22;20161;-63
2023/01/26 10:00:11;;;;;;;34.17;13.88;;;;;;;;;;6357314;22;20142;-63
2023/01/26 10:02:49;;;;;;;36.25;14.82;;;;;;;;;;6350728;22;20153;-63
2023/01/26 10:05:35;;;;;;;30.55;13.32;;;;;;;;;;6349533;22;20204;-63
2023/01/26 10:08:02;;;;;;;30.50;12.65;;;;;;;;;;6347322;22;20228;-63
2023/01/26 10:10:31;;;;;;;33.45;14.48;;;;;;;;;;6345328;22;20544;-60
2023/01/26 10:12:58;;;;;;;32.35;13.68;;;;;;;;;;6341765;22;20145;-63
2023/01/26 10:15:24;;;;;;;30.42;12.35;;;;;;;;;;6341575;22;20154;-63
2023/01/26 10:17:51;;;;;;;30.38;13.27;;;;;;;;;;6341301;22;20146;-62
2023/01/26 10:20:24;;;;;;;30.80;13.57;;;;;;;;;;6341891;22;20165;-62
2023/01/26 10:22:52;;;;;;;27.42;11.90;;;;;;;;;;6341186;22;20166;-63
2023/01/26 10:25:19;;;;;;;29.65;11.73;;;;;;;;;;6341398;22;20205;-63
2023/01/26 10:27:45;;;;;;;28.95;13.60;;;;;;;;;;6340043;22;20634;-63
2023/01/26 10:30:13;;;;;;;28.27;12.35;;;;;;;;;;6341640;22;20134;-61
2023/01/26 10:32:41;;;;;;;30.77;11.65;;;;;;;;;;6341653;22;20146;-62
2023/01/26 10:35:14;;;;;;;28.98;11.65;;;;;;;;;;6342475;22;20153;-62
2023/01/26 10:37:40;;;;;;;31.13;14.05;;;;;;;;;;6342026;22;20610;-62
2023/01/26 10:40:06;;;;;;;30.00;13.30;;;;;;;;;;6341890;22;20166;-63
2023/01/26 10:42:33;;;;;;;32.90;13.90;;;;;;;;;;6341564;22;20138;-63
2023/01/26 10:45:01;;;;;;;34.17;14.50;;;;;;;;;;6341471;22;20463;-62
2023/01/26 10:47:27;;;;;;;31.45;13.15;;;;;;;;;;6341339;22;20179;-63
2023/01/26 10:50:12;;;;;;;31.35;13.25;;;;;;;;;;6340956;22;20217;-63
2023/01/26 10:52:55;;;;;;;31.45;12.88;;;;;;;;;;6340840;22;20127;-63
2023/01/26 10:55:21;;;;;;;30.13;12.90;;;;;;;;;;6341418;22;20191;-62
2023/01/26 10:57:47;;;;;;;29.50;12.48;;;;;;;;;;6341164;22;20142;-63
2023/01/26 11:00:30;;;;;;;34.22;14.32;;;;;;;;;;6341374;22;20225;-62
2023/01/26 11:03:12;;;;;;;33.97;13.18;;;;;;;;;;6341003;22;20226;-63
2023/01/26 11:05:38;;;;;;;33.03;13.52;;;;;;;;;;6340603;22;20189;-62
2023/01/26 11:08:24;;;;;;;33.67;13.48;;;;;;;;;;6340834;22;20283;-63
2023/01/26 11:10:52;;;;;;;32.25;13.50;;;;;;;;;;6341192;22;20640;-62
2023/01/26 11:13:19;;;;;;;25.45;11.82;;;;;;;;;;6341917;22;20445;-60
2023/01/26 11:15:48;;;;;;;28.98;13.27;;;;;;;;;;6341442;22;20150;-62
2023/01/26 11:18:20;;;;;;;27.98;12.40;;;;;;;;;;6340928;22;20157;-63
2023/01/26 11:20:48;;;;;;;30.38;12.23;;;;;;;;;;6340943;22;20157;-63
2023/01/26 11:23:26;;;;;;;27.35;11.98;;;;;;;;;;6340715;22;20177;-63
2023/01/26 11:26:11;;;;;;;27.27;10.77;;;;;;;;;;6340732;22;20188;-63
2023/01/26 11:29:02;;;;;;;27.73;12.80;;;;;;;;;;6340463;22;20844;-63
2023/01/26 11:31:31;;;;;;;26.15;11.13;;;;;;;;;;6341513;22;20126;-64
2023/01/26 11:34:09;;;;;;;25.67;11.90;;;;;;;;;;6341578;22;20139;-64
2023/01/26 11:36:45;;;;;;;26.33;11.48;;;;;;;;;;6341479;22;20145;-62
2023/01/26 11:39:23;;;;;;;23.00;10.63;;;;;;;;;;6340835;22;20145;-63
2023/01/26 11:41:49;;;;;;;22.67;10.60;;;;;;;;;;6341232;22;20142;-62
2023/01/26 11:44:24;;;;;;;26.45;10.93;;;;;;;;;;6340589;22;20690;-63
2023/01/26 11:46:56;;;;;;;23.75;10.98;;;;;;;;;;6341329;22;20122;-63
2023/01/26 11:49:22;;;;;;;27.55;10.90;;;;;;;;;;6341221;22;20561;-63
2023/01/26 11:51:54;;;;;;;25.60;12.02;;;;;;;;;;6341303;22;20207;-63
2023/01/26 11:54:38;;;;;;;22.02;10.18;;;;;;;;;;6341141;22;20127;-63
2023/01/26 11:57:26;;;;;;;22.73;10.15;;;;;;;;;;6340927;22;20142;-63
2023/01/26 12:00:02;;;;;;;21.50;9.50;;;;;;;;;;6341321;22;20141;-61
2023/01/26 12:02:30;;;;;;;19.27;9.05;;;;;;;;;;6341517;22;20139;-63
2023/01/26 12:05:02;;;;;;;20.02;10.07;;;;;;;;;;6340908;22;20181;-63
2023/01/26 12:07:50;;;;;;;19.92;9.85;;;;;;;;;;6341063;22;20271;-62
2023/01/26 12:10:16;;;;;;;26.13;11.07;;;;;;;;;;6341091;22;20133;-63
2023/01/26 12:12:46;;;;;;;21.17;10.00;;;;;;;;;;6340936;22;20139;-64
2023/01/26 12:15:15;;;;;;;20.85;8.90;;;;;;;;;;6341621;22;20433;-63
2023/01/26 12:17:57;;;;;;;18.30;8.88;;;;;;;;;;6342805;22;20169;-63
2023/01/26 12:20:35;;;;;;;19.02;9.00;;;;;;;;;;6342607;22;20632;-64
2023/01/26 12:23:05;;;;;;;18.40;9.07;;;;;;;;;;6342378;22;20161;-63
2023/01/26 12:25:33;;;;;;;18.48;8.88;;;;;;;;;;6342116;22;20577;-64
2023/01/26 12:28:11;;;;;;;16.10;7.93;;;;;;;;;;6342450;22;20138;-63
2023/01/26 12:30:45;;;;;;;20.15;8.63;;;;;;;;;;6342849;22;20141;-65
2023/01/26 12:33:11;;;;;;;18.60;9.18;;;;;;;;;;6342305;22;20137;-64
2023/01/26 12:35:39;;;;;;;17.67;8.23;;;;;;;;;;6342608;22;20146;-64
2023/01/26 12:38:09;;;;;;;17.55;8.73;;;;;;;;;;6342347;22;20147;-62
2023/01/26 12:40:53;;;;;;;19.85;9.48;;;;;;;;;;6342719;22;20142;-64
2023/01/26 12:43:40;;;;;;;18.38;8.45;;;;;;;;;;6342867;22;20487;-60
2023/01/26 12:46:07;;;;;;;15.27;8.43;;;;;;;;;;6321195;22;20174;-63
2023/01/26 12:48:48;;;;;;;18.67;9.23;;;;;;;;;;6342305;22;20444;-63
2023/01/26 12:51:19;;;;;;;16.98;8.18;;;;;;;;;;6342305;22;20154;-63
2023/01/26 12:53:56;;;;;;;15.38;7.60;;;;;;;;;;6342526;22;20188;-63
2023/01/26 12:56:40;;;;;;;16.17;7.70;;;;;;;;;;6341991;22;20483;-64
2023/01/26 12:59:13;;;;;;;17.40;7.40;;;;;;;;;;6342056;22;20573;-63
2023/01/26 13:01:40;;;;;;;14.85;7.20;;;;;;;;;;6342393;22;20138;-63
2023/01/26 13:04:11;;;;;;;15.80;7.50;;;;;;;;;;6342290;22;20158;-62
2023/01/26 13:06:37;;;;;;;18.45;6.95;;;;;;;;;;6342233;22;20157;-62
2023/01/26 13:09:18;;;;;;;15.82;7.65;;;;;;;;;;6342216;22;20147;-62
2023/01/26 13:11:53;;;;;;;15.27;7.55;;;;;;;;;;6342295;22;20275;-63
2023/01/26 13:14:25;;;;;;;17.30;8.45;;;;;;;;;;6341993;22;20146;-63
2023/01/26 13:16:51;;;;;;;17.55;8.02;;;;;;;;;;6342380;22;20162;-63
2023/01/26 13:19:50;;;;;;;18.27;8.77;;;;;;;;;;6342229;22;20146;-63
2023/01/26 13:22:19;;;;;;;19.38;7.93;;;;;;;;;;6216654;23;20243;-63
2023/01/26 13:24:47;;;;;;;21.75;8.35;;;;;;;;;;6216757;23;20173;-62
2023/01/26 13:27:34;;;;;;;18.33;7.78;;;;;;;;;;6223133;23;20151;-63
2023/01/26 13:30:00;;;;;;;19.73;8.40;;;;;;;;;;6225036;23;20152;-62
2023/01/26 13:32:26;;;;;;;19.20;8.32;;;;;;;;;;6219574;23;20141;-62
2023/01/26 13:34:59;;;;;;;24.90;8.82;;;;;;;;;;6218242;23;20145;-63
2023/01/26 13:37:41;;;;;;;23.17;8.48;;;;;;;;;;6218520;23;20133;-63
2023/01/26 13:40:26;;;;;;;21.73;8.88;;;;;;;;;;6217823;23;20208;-63
2023/01/26 13:43:06;;;;;;;21.60;8.10;;;;;;;;;;6217462;23;20144;-64
2023/01/26 13:45:35;;;;;;;22.65;9.02;;;;;;;;;;6216571;23;20168;-63
2023/01/26 13:48:03;;;;;;;21.17;8.68;;;;;;;;;;6216464;23;20552;-64
2023/01/26 13:50:30;;;;;;;22.42;8.20;;;;;;;;;;6216525;23;20240;-63
2023/01/26 13:52:56;;;;;;;19.48;7.88;;;;;;;;;;6216221;23;20156;-62
2023/01/26 13:55:24;;;;;;;23.98;8.95;;;;;;;;;;6216403;23;20173;-62
2023/01/26 13:58:09;;;;;;;25.27;7.97;;;;;;;;;;6280970;22;20219;-61
2023/01/26 14:00:35;;;;;;;22.55;8.60;;;;;;;;;;6341704;22;20191;-60
2023/01/26 14:03:01;;;;;;;21.63;9.23;;;;;;;;;;6341420;22;20150;-60
2023/01/26 14:05:28;;;;;;;23.88;9.75;;;;;;;;;;6341300;22;20170;-62
2023/01/26 14:07:54;;;;;;;21.25;8.52;;;;;;;;;;6341900;22;20148;-60
2023/01/26 14:10:20;;;;;;;21.75;8.23;;;;;;;;;;6342322;22;20139;-61
2023/01/26 14:12:50;;;;;;;27.58;8.98;;;;;;;;;;6342157;22;20142;-63
2023/01/26 14:15:21;;;;;;;22.88;9.73;;;;;;;;;;6342640;22;20146;-62
2023/01/26 14:17:49;;;;;;;20.63;9.15;;;;;;;;;;6342231;22;20530;-62
2023/01/26 14:20:24;;;;;;;23.13;10.38;;;;;;;;;;6342044;22;20214;-62
2023/01/26 14:23:22;;;;;;;23.70;10.43;;;;;;;;;;6341807;22;20194;-61
2023/01/26 14:25:55;;;;;;;23.90;10.43;;;;;;;;;;6277686;22;20598;-62
2023/01/26 14:28:22;;;;;;;26.85;11.18;;;;;;;;;;6277383;22;20143;-63
2023/01/26 14:30:53;;;;;;;25.77;9.88;;;;;;;;;;6277554;22;20144;-63
2023/01/26 14:33:19;;;;;;;22.10;9.13;;;;;;;;;;6277631;22;20151;-62
2023/01/26 14:35:59;;;;;;;20.67;9.05;;;;;;;;;;6276811;22;20735;-61
2023/01/26 14:38:27;;;;;;;25.50;10.40;;;;;;;;;;6277283;22;20218;-63
2023/01/26 14:40:54;;;;;;;26.73;10.13;;;;;;;;;;6276070;22;20152;-62
2023/01/26 14:43:20;;;;;;;22.95;9.70;;;;;;;;;;6277557;22;20144;-63
2023/01/26 14:46:13;;;;;;;23.85;10.35;;;;;;;;;;6277204;22;20171;-61
2023/01/26 14:48:45;;;;;;;23.63;10.13;;;;;;;;;;6274351;22;20155;-63
2023/01/26 14:51:18;;;;;;;21.88;9.00;;;;;;;;;;6277440;22;20583;-63
2023/01/26 14:53:48;;;;;;;21.73;10.13;;;;;;;;;;6277035;22;20571;-62
2023/01/26 14:56:17;;;;;;;23.70;9.57;;;;;;;;;;6277385;22;20147;-63
2023/01/26 14:58:43;;;;;;;21.15;9.20;;;;;;;;;;6277017;22;20144;-63
2023/01/26 15:01:09;;;;;;;19.92;8.80;;;;;;;;;;6304980;22;20335;-63
2023/01/26 15:03:36;;;;;;;22.30;9.70;;;;;;;;;;6341197;22;20147;-62
2023/01/26 15:06:22;;;;;;;22.42;9.93;;;;;;;;;;6340980;22;20166;-62
2023/01/26 15:08:53;;;;;;;22.48;9.15;;;;;;;;;;6341000;22;20149;-63
2023/01/26 15:14:26;;;;;;;25.77;10.75;;;;;;;;;;6341300;22;20176;-63
2023/01/26 15:16:53;;;;;;;21.70;9.43;;;;;;;;;;6341049;22;20137;-62
2023/01/26 15:19:23;;;;;;;21.02;9.57;;;;;;;;;;6341332;22;20142;-62
2023/01/26 15:21:49;;;;;;;23.35;9.88;;;;;;;;;;6341195;22;20169;-63
2023/01/26 15:24:15;;;;;;;22.58;9.25;;;;;;;;;;6341025;22;20168;-62
2023/01/26 15:26:46;;;;;;;19.55;9.02;;;;;;;;;;6341307;22;20170;-61
2023/01/26 15:29:21;;;;;;;20.83;9.15;;;;;;;;;;6341216;22;20142;-62
2023/01/26 15:31:51;;;;;;;19.80;9.10;;;;;;;;;;6341321;22;20129;-62